createdAt,value
2023-03-29T00:00:12.942Z,5.47
2023-03-29T00:02:41.941Z,4.95
2023-03-29T00:05:10.026Z,4.37
2023-03-29T00:07:37.554Z,4.53
2023-03-29T00:10:05.904Z,6.55
2023-03-29T00:12:33.713Z,4.03
2023-03-29T00:15:01.917Z,5.87
2023-03-29T00:17:30.385Z,7.15
2023-03-29T00:19:57.950Z,4.35
2023-03-29T00:22:25.954Z,4.85
2023-03-29T00:24:54.244Z,5.87
2023-03-29T00:27:22.068Z,5.03
2023-03-29T00:29:49.525Z,5.03
2023-03-29T00:32:17.331Z,6.93
2023-03-29T00:34:45.987Z,5.65
2023-03-29T00:37:14.903Z,4.40
2023-03-29T00:39:42.666Z,6.05
2023-03-29T00:42:13.589Z,6.85
2023-03-29T00:44:56.372Z,7.95
2023-03-29T00:47:29.909Z,6.18
2023-03-29T00:50:03.448Z,5.32
2023-03-29T00:52:32.136Z,6.28
2023-03-29T00:55:04.398Z,6.55
2023-03-29T00:57:34.234Z,5.18
2023-03-29T01:00:05.048Z,5.57
2023-03-29T01:02:34.771Z,4.80
2023-03-29T01:05:15.051Z,5.68
2023-03-29T01:07:59.100Z,3.55
2023-03-29T01:10:45.200Z,5.45
2023-03-29T01:15:47.023Z,5.70
2023-03-29T01:18:16.578Z,6.55
2023-03-29T01:20:56.808Z,5.37
2023-03-29T01:23:39.940Z,8.35
2023-03-29T01:26:10.369Z,6.62
2023-03-29T01:28:45.878Z,7.00
2023-03-29T01:31:18.234Z,5.55
2023-03-29T01:33:49.191Z,8.30
2023-03-29T01:36:22.782Z,11.75
2023-03-29T01:38:58.270Z,8.82
2023-03-29T01:41:52.701Z,9.75
2023-03-29T01:44:32.236Z,10.50
2023-03-29T01:47:26.335Z,9.05
2023-03-29T01:50:07.396Z,8.90
2023-03-29T01:52:47.244Z,10.30
2023-03-29T01:55:24.248Z,9.30
2023-03-29T01:57:52.659Z,6.65
2023-03-29T02:00:24.732Z,7.78
2023-03-29T02:02:55.151Z,6.65
2023-03-29T02:05:24.423Z,7.05
2023-03-29T02:07:53.270Z,9.13
2023-03-29T02:10:22.379Z,5.47
2023-03-29T02:12:50.764Z,6.70
2023-03-29T02:15:20.267Z,4.25
2023-03-29T02:17:49.345Z,4.53
2023-03-29T02:20:25.792Z,5.37
2023-03-29T02:22:58.886Z,4.60
2023-03-29T02:25:27.082Z,4.72
2023-03-29T02:27:54.907Z,5.07
2023-03-29T02:30:25.565Z,6.80
2023-03-29T02:33:09.290Z,7.75
2023-03-29T02:35:48.465Z,11.85
2023-03-29T02:38:17.192Z,14.30
2023-03-29T02:40:46.777Z,12.23
2023-03-29T02:43:15.701Z,8.77
2023-03-29T02:45:44.469Z,15.15
2023-03-29T02:48:16.753Z,15.10
2023-03-29T02:50:46.039Z,12.85
2023-03-29T02:53:17.261Z,17.90
2023-03-29T02:55:46.866Z,13.70
2023-03-29T02:58:17.381Z,17.52
2023-03-29T03:00:49.069Z,14.93
2023-03-29T03:03:16.844Z,15.25
2023-03-29T03:05:46.169Z,17.77
2023-03-29T03:08:14.542Z,12.98
2023-03-29T03:10:42.655Z,14.55
2023-03-29T03:13:10.397Z,20.05
2023-03-29T03:15:38.801Z,16.55
2023-03-29T03:18:06.273Z,13.88
2023-03-29T03:20:34.753Z,16.55
2023-03-29T03:23:03.668Z,18.42
2023-03-29T03:25:32.674Z,21.25
2023-03-29T03:28:01.683Z,13.00
2023-03-29T03:30:29.090Z,15.35
2023-03-29T03:32:57.885Z,13.57
2023-03-29T03:35:26.081Z,13.15
2023-03-29T03:37:53.498Z,14.60
2023-03-29T03:40:20.964Z,9.02
2023-03-29T03:42:48.909Z,10.07
2023-03-29T03:45:16.592Z,10.10
2023-03-29T03:47:45.533Z,8.95
2023-03-29T03:50:13.795Z,8.77
2023-03-29T03:52:41.261Z,6.70
2023-03-29T03:55:09.692Z,8.23
2023-03-29T03:57:41.390Z,6.87
2023-03-29T04:00:21.356Z,8.73
2023-03-29T04:02:51.628Z,7.05
2023-03-29T04:05:19.991Z,8.50
2023-03-29T04:07:49.690Z,12.05
2023-03-29T04:10:18.199Z,9.25
2023-03-29T04:12:46.553Z,8.23
2023-03-29T04:15:13.975Z,8.88
2023-03-29T04:17:42.655Z,8.65
2023-03-29T04:20:12.592Z,11.82
2023-03-29T04:22:40.504Z,9.45
2023-03-29T04:25:10.444Z,9.50
2023-03-29T04:27:40.719Z,7.70
2023-03-29T04:30:10.003Z,7.60
2023-03-29T04:32:39.285Z,8.68
2023-03-29T04:35:08.051Z,9.77
2023-03-29T04:37:35.721Z,6.87
2023-03-29T04:40:09.002Z,6.75
2023-03-29T04:42:37.710Z,8.88
2023-03-29T04:45:07.078Z,8.80
2023-03-29T04:47:39.905Z,7.65
2023-03-29T04:50:09.139Z,7.40
2023-03-29T04:52:37.351Z,7.45
2023-03-29T04:55:06.813Z,13.00
2023-03-29T04:57:37.383Z,8.00
2023-03-29T05:00:14.372Z,9.07
2023-03-29T05:02:44.515Z,7.78
2023-03-29T05:05:13.125Z,8.02
2023-03-29T05:07:40.960Z,9.02
2023-03-29T05:10:10.340Z,9.60
2023-03-29T05:12:37.996Z,10.60
2023-03-29T05:15:06.032Z,7.43
2023-03-29T05:17:34.388Z,8.75
2023-03-29T05:20:07.310Z,9.25
2023-03-29T05:22:36.434Z,9.85
2023-03-29T05:25:04.982Z,10.38
2023-03-29T05:27:33.452Z,9.60
2023-03-29T05:30:02.621Z,10.27
2023-03-29T05:32:30.675Z,8.35
2023-03-29T05:34:58.257Z,9.00
2023-03-29T05:37:26.661Z,11.35
2023-03-29T05:39:54.989Z,8.05
2023-03-29T05:42:34.514Z,11.90
2023-03-29T05:45:02.725Z,10.93
2023-03-29T05:47:30.151Z,8.20
2023-03-29T05:49:58.133Z,10.65
2023-03-29T05:52:25.733Z,10.10
2023-03-29T05:54:53.177Z,11.12
2023-03-29T05:57:22.158Z,8.85
2023-03-29T05:59:49.621Z,9.93
2023-03-29T06:02:17.135Z,9.90
2023-03-29T06:04:45.484Z,8.55
2023-03-29T06:07:15.137Z,10.82
2023-03-29T06:09:44.753Z,8.52
2023-03-29T06:12:12.583Z,10.07
2023-03-29T06:14:40.284Z,12.55
2023-03-29T06:17:10.770Z,10.32
2023-03-29T06:19:38.715Z,34.50
2023-03-29T06:22:06.134Z,26.52
2023-03-29T06:24:33.871Z,30.90
2023-03-29T06:27:01.728Z,10.40
2023-03-29T06:29:30.256Z,10.93
2023-03-29T06:31:57.770Z,10.32
2023-03-29T06:34:27.796Z,12.63
2023-03-29T06:36:56.413Z,15.30
2023-03-29T06:39:26.370Z,10.50
2023-03-29T06:41:56.094Z,10.20
2023-03-29T06:44:24.038Z,13.30
2023-03-29T06:46:52.698Z,8.05
2023-03-29T06:49:21.695Z,8.13
2023-03-29T06:51:49.639Z,8.90
2023-03-29T06:54:17.026Z,9.25
2023-03-29T06:56:48.407Z,6.57
2023-03-29T06:59:16.190Z,9.00
2023-03-29T07:01:45.147Z,7.80
2023-03-29T07:04:13.930Z,7.93
2023-03-29T07:06:48.328Z,7.68
2023-03-29T07:09:19.611Z,7.47
2023-03-29T07:11:50.127Z,8.38
2023-03-29T07:14:18.397Z,6.95
2023-03-29T07:16:47.266Z,9.93
2023-03-29T07:19:15.458Z,5.78
2023-03-29T07:21:47.668Z,8.23
2023-03-29T07:24:15.163Z,7.30
2023-03-29T07:26:52.287Z,5.32
2023-03-29T07:29:28.850Z,13.45
2023-03-29T07:31:57.242Z,7.95
2023-03-29T07:34:30.065Z,6.03
2023-03-29T08:29:16.860Z,7.05
2023-03-29T08:31:45.272Z,7.30
2023-03-29T08:34:12.731Z,6.50
2023-03-29T08:36:40.561Z,5.35
2023-03-29T08:39:08.760Z,4.90
2023-03-29T08:42:01.012Z,8.10
2023-03-29T08:44:44.029Z,6.40
2023-03-29T08:47:29.875Z,5.45
2023-03-29T08:49:58.116Z,5.65
2023-03-29T08:52:35.640Z,4.28
2023-03-29T08:55:11.777Z,5.53
2023-03-29T08:57:49.301Z,4.60
2023-03-29T09:02:48.490Z,5.12
2023-03-29T09:05:24.506Z,5.32
2023-03-29T09:07:53.339Z,4.15
2023-03-29T09:10:27.281Z,6.40
2023-03-29T09:13:01.675Z,5.80
2023-03-29T09:15:53.376Z,4.95
2023-03-29T09:18:26.848Z,4.53
2023-03-29T09:21:00.668Z,5.07
2023-03-29T09:23:52.798Z,5.43
2023-03-29T09:26:57.408Z,5.18
2023-03-29T09:29:41.056Z,5.45
2023-03-29T09:32:18.202Z,4.05
2023-03-29T09:34:58.191Z,5.60
2023-03-29T09:37:32.458Z,5.50
2023-03-29T09:40:02.040Z,3.92
2023-03-29T09:42:31.863Z,7.03
2023-03-29T09:45:08.674Z,6.53
2023-03-29T09:47:44.834Z,5.07
2023-03-29T09:50:30.084Z,5.28
2023-03-29T09:52:58.790Z,4.75
2023-03-29T09:55:29.592Z,6.12
2023-03-29T09:58:00.680Z,5.78
2023-03-29T10:00:29.140Z,7.95
2023-03-29T10:02:58.958Z,7.05
2023-03-29T10:05:29.567Z,8.27
2023-03-29T10:08:01.165Z,5.20
2023-03-29T10:10:31.955Z,10.20
2023-03-29T10:13:01.877Z,4.82
2023-03-29T10:15:30.539Z,6.18
2023-03-29T10:18:04.068Z,5.62
2023-03-29T10:20:35.379Z,6.15
2023-03-29T10:23:05.118Z,6.95
2023-03-29T10:25:34.344Z,5.28
2023-03-29T10:28:12.451Z,5.62
2023-03-29T10:30:40.241Z,5.53
2023-03-29T10:33:16.875Z,5.47
2023-03-29T10:35:50.685Z,6.97
2023-03-29T10:38:20.815Z,6.15
2023-03-29T10:40:50.138Z,5.60
2023-03-29T10:43:17.720Z,8.25
2023-03-29T10:45:48.657Z,6.35
2023-03-29T10:48:17.673Z,7.43
2023-03-29T10:50:52.952Z,5.03
2023-03-29T10:53:27.089Z,5.10
2023-03-29T10:56:16.420Z,5.68
2023-03-29T10:59:03.411Z,5.93
2023-03-29T11:01:42.608Z,5.78
2023-03-29T11:04:25.349Z,4.35
2023-03-29T11:06:59.845Z,5.70
2023-03-29T11:09:36.309Z,5.10
2023-03-29T11:12:25.822Z,5.28
2023-03-29T11:15:13.165Z,5.80
2023-03-29T11:18:09.748Z,6.22
2023-03-29T11:20:48.737Z,6.60
2023-03-29T11:23:30.016Z,6.32
2023-03-29T11:26:00.954Z,5.05
2023-03-29T11:29:11.027Z,5.25
2023-03-29T11:32:02.414Z,6.40
2023-03-29T11:34:39.668Z,6.12
2023-03-29T11:37:16.178Z,6.15
2023-03-29T11:40:05.658Z,5.28
2023-03-29T11:42:39.980Z,6.65
2023-03-29T11:45:15.365Z,8.32
2023-03-29T11:47:44.517Z,5.10
2023-03-29T11:50:15.574Z,5.68
2023-03-29T11:52:56.122Z,8.50
2023-03-29T11:55:38.175Z,6.93
2023-03-29T11:58:19.634Z,6.53
2023-03-29T12:01:07.379Z,5.53
2023-03-29T12:03:45.601Z,7.00
2023-03-29T12:06:23.982Z,8.52
2023-03-29T12:09:00.510Z,8.77
2023-03-29T12:11:37.395Z,6.47
2023-03-29T12:14:18.092Z,8.65
2023-03-29T12:16:54.866Z,6.32
2023-03-29T12:19:31.477Z,6.22
2023-03-29T12:21:59.594Z,7.40
2023-03-29T12:24:30.249Z,6.43
2023-03-29T12:27:08.438Z,6.87
2023-03-29T12:30:13.839Z,7.75
2023-03-29T12:33:00.915Z,5.87
2023-03-29T12:35:35.632Z,6.43
2023-03-29T12:38:28.757Z,7.03
2023-03-29T12:43:38.155Z,9.25
2023-03-29T12:46:11.466Z,6.95
2023-03-29T12:48:40.404Z,7.78
2023-03-29T12:51:16.125Z,6.87
2023-03-29T12:53:45.678Z,8.52
2023-03-29T12:56:16.026Z,7.70
2023-03-29T12:58:49.625Z,6.15
2023-03-29T13:01:33.899Z,7.90
2023-03-29T13:04:01.432Z,8.05
2023-03-29T13:06:56.380Z,6.65
2023-03-29T13:09:30.008Z,13.85
2023-03-29T13:12:27.399Z,9.70
2023-03-29T13:15:03.685Z,6.80
2023-03-29T13:17:56.090Z,8.23
2023-03-29T13:20:44.798Z,6.25
2023-03-29T13:23:24.031Z,8.15
2023-03-29T13:26:09.776Z,7.53
2023-03-29T13:28:53.152Z,6.32
2023-03-29T13:31:37.054Z,6.25
2023-03-29T13:34:17.339Z,8.95
2023-03-29T13:36:58.721Z,6.87
2023-03-29T13:39:32.778Z,6.65
2023-03-29T13:42:28.861Z,8.35
2023-03-29T13:45:15.544Z,10.75
2023-03-29T13:50:36.777Z,7.55
2023-03-29T13:53:21.434Z,6.65
2023-03-29T13:55:51.600Z,10.10
2023-03-29T13:58:39.494Z,9.85
2023-03-29T14:01:18.401Z,7.97
2023-03-29T14:03:49.414Z,8.23
2023-03-29T14:06:22.536Z,8.13
2023-03-29T14:08:51.779Z,7.75
2023-03-29T14:11:25.789Z,9.45
2023-03-29T14:13:54.948Z,8.93
2023-03-29T14:16:22.562Z,6.82
2023-03-29T14:18:52.292Z,7.75
2023-03-29T14:21:21.088Z,9.18
2023-03-29T14:23:55.277Z,9.90
2023-03-29T14:26:24.430Z,9.00
2023-03-29T14:28:53.922Z,6.20
2023-03-29T14:31:42.801Z,6.68
2023-03-29T14:34:16.018Z,7.60
2023-03-29T14:36:48.962Z,7.37
2023-03-29T14:39:19.230Z,9.85
2023-03-29T14:41:51.820Z,11.52
2023-03-29T14:44:39.383Z,6.20
2023-03-29T14:47:06.871Z,5.85
2023-03-29T14:49:35.867Z,6.78
2023-03-29T14:52:03.485Z,6.82
2023-03-29T14:54:33.376Z,7.55
2023-03-29T14:57:04.012Z,7.50
2023-03-29T14:59:34.796Z,5.90
2023-03-29T15:02:02.773Z,8.40
2023-03-29T15:04:37.523Z,11.20
2023-03-29T15:07:05.362Z,8.30
2023-03-29T15:09:34.394Z,7.70
2023-03-29T15:12:02.673Z,7.72
2023-03-29T15:14:36.990Z,9.57
2023-03-29T15:17:42.650Z,8.77
2023-03-29T15:20:29.079Z,7.28
2023-03-29T15:23:24.243Z,8.27
2023-03-29T15:26:06.628Z,7.35
2023-03-29T15:28:36.079Z,14.77
2023-03-29T15:31:11.650Z,8.02
2023-03-29T15:33:40.966Z,7.00
2023-03-29T15:36:10.647Z,7.68
2023-03-29T15:38:43.835Z,6.80
2023-03-29T15:41:14.406Z,10.43
2023-03-29T15:43:42.568Z,11.70
2023-03-29T15:46:14.078Z,8.05
2023-03-29T15:48:42.604Z,7.40
2023-03-29T15:51:13.916Z,9.30
2023-03-29T15:53:41.684Z,8.75
2023-03-29T15:56:11.634Z,6.40
2023-03-29T15:58:39.214Z,14.80
2023-03-29T16:01:13.276Z,9.40
2023-03-29T16:03:41.721Z,7.80
2023-03-29T16:06:12.004Z,10.35
2023-03-29T16:08:40.818Z,7.35
2023-03-29T16:11:09.170Z,6.43
2023-03-29T16:13:36.612Z,6.90
2023-03-29T16:16:04.680Z,6.43
2023-03-29T16:18:32.631Z,7.12
2023-03-29T16:21:00.044Z,7.68
2023-03-29T16:23:27.420Z,8.05
2023-03-29T16:25:55.903Z,10.00
2023-03-29T16:28:23.287Z,9.80
2023-03-29T16:30:51.752Z,8.80
2023-03-29T16:33:19.424Z,10.55
2023-03-29T16:35:47.334Z,9.98
2023-03-29T16:38:14.801Z,8.60
2023-03-29T16:40:42.749Z,9.65
2023-03-29T16:43:14.520Z,12.10
2023-03-29T16:45:42.294Z,8.85
2023-03-29T16:48:13.356Z,13.57
2023-03-29T16:50:41.059Z,8.55
2023-03-29T16:53:08.852Z,9.30
2023-03-29T16:55:38.017Z,11.20
2023-03-29T16:58:06.097Z,8.20
2023-03-29T17:00:33.975Z,8.05
2023-03-29T17:03:01.800Z,6.97
2023-03-29T17:05:29.477Z,8.38
2023-03-29T17:07:57.439Z,7.03
2023-03-29T17:10:25.818Z,8.57
2023-03-29T17:12:53.404Z,11.30
2023-03-29T17:15:21.289Z,4.97
2023-03-29T17:17:48.692Z,5.97
2023-03-29T17:20:19.448Z,8.95
2023-03-29T17:22:49.538Z,8.35
2023-03-29T17:25:17.278Z,10.52
2023-03-29T17:27:46.275Z,11.80
2023-03-29T17:30:14.249Z,14.80
2023-03-29T17:32:42.965Z,11.70
2023-03-29T17:35:13.353Z,15.63
2023-03-29T17:37:42.519Z,11.55
2023-03-29T17:40:17.214Z,12.95
2023-03-29T17:42:52.572Z,8.38
2023-03-29T17:45:20.521Z,7.60
2023-03-29T17:47:48.448Z,7.85
2023-03-29T17:50:16.323Z,7.87
2023-03-29T17:52:44.561Z,7.60
2023-03-29T17:55:19.161Z,8.43
2023-03-29T17:57:49.275Z,8.55
2023-03-29T18:00:19.326Z,8.38
2023-03-29T18:02:49.642Z,8.48
2023-03-29T18:05:18.710Z,7.20
2023-03-29T18:07:46.898Z,7.55
2023-03-29T18:10:16.197Z,9.20
2023-03-29T18:12:47.276Z,7.65
2023-03-29T18:15:15.980Z,9.98
2023-03-29T18:17:44.823Z,9.75
2023-03-29T18:20:14.046Z,9.15
2023-03-29T18:22:43.044Z,9.68
2023-03-29T18:25:11.318Z,11.05
2023-03-29T18:27:40.604Z,10.98
2023-03-29T18:30:09.274Z,10.82
2023-03-29T18:32:38.806Z,10.23
2023-03-29T18:35:07.986Z,11.57
2023-03-29T18:37:36.923Z,7.65
2023-03-29T18:40:08.604Z,7.20
2023-03-29T18:42:40.064Z,8.57
2023-03-29T18:45:09.847Z,8.30
2023-03-29T18:47:38.733Z,5.85
2023-03-29T18:50:07.588Z,6.32
2023-03-29T18:52:38.094Z,6.43
2023-03-29T18:55:08.325Z,7.28
2023-03-29T18:57:37.922Z,7.12
2023-03-29T19:00:12.580Z,9.77
2023-03-29T19:02:42.151Z,8.30
2023-03-29T19:05:11.918Z,8.38
2023-03-29T19:07:41.106Z,7.82
2023-03-29T19:10:09.916Z,11.35
2023-03-29T19:12:40.338Z,9.77
2023-03-29T19:15:10.054Z,9.88
2023-03-29T19:17:39.884Z,9.50
2023-03-29T19:20:12.557Z,8.20
2023-03-29T19:22:41.861Z,9.07
2023-03-29T19:25:11.338Z,9.38
2023-03-29T19:27:40.176Z,9.98
2023-03-29T19:30:10.457Z,9.38
2023-03-29T19:32:39.998Z,10.48
2023-03-29T19:35:10.190Z,8.07
2023-03-29T19:37:40.015Z,11.48
2023-03-29T19:40:12.730Z,10.10
2023-03-29T19:42:42.868Z,10.00
2023-03-29T19:45:16.559Z,9.60
2023-03-29T19:47:48.063Z,9.23
2023-03-29T19:50:16.783Z,10.07
2023-03-29T19:52:44.834Z,8.52
2023-03-29T19:55:13.212Z,8.20
2023-03-29T19:57:42.717Z,7.72
2023-03-29T20:00:11.030Z,7.85
2023-03-29T20:02:40.586Z,6.68
2023-03-29T20:05:09.867Z,7.53
2023-03-29T20:07:37.299Z,7.18
2023-03-29T20:10:05.339Z,7.05
2023-03-29T20:12:33.592Z,10.23
2023-03-29T20:15:01.589Z,7.72
2023-03-29T20:17:29.434Z,9.13
2023-03-29T20:19:59.357Z,7.70
2023-03-29T20:22:30.725Z,7.85
2023-03-29T20:24:58.372Z,7.82
2023-03-29T20:27:26.542Z,7.15
2023-03-29T20:29:55.060Z,6.25
2023-03-29T20:32:23.292Z,6.93
2023-03-29T20:34:54.350Z,5.35
2023-03-29T20:37:23.055Z,6.15
2023-03-29T20:39:50.933Z,9.18
2023-03-29T20:42:24.610Z,7.35
2023-03-29T20:44:53.823Z,8.30
2023-03-29T20:47:21.720Z,8.45
2023-03-29T20:49:54.148Z,8.13
2023-03-29T20:52:22.822Z,8.85
2023-03-29T20:54:50.453Z,9.98
2023-03-29T20:57:20.890Z,9.38
2023-03-29T20:59:51.369Z,8.02
2023-03-29T21:02:21.514Z,9.40
2023-03-29T21:04:51.888Z,8.32
2023-03-29T21:07:21.362Z,11.57
2023-03-29T21:09:50.036Z,8.90
2023-03-29T21:12:17.661Z,10.32
2023-03-29T21:14:45.056Z,11.88
2023-03-29T21:17:13.312Z,10.82
2023-03-29T21:19:41.382Z,14.90
2023-03-29T21:22:10.042Z,15.57
2023-03-29T21:24:38.059Z,15.05
2023-03-29T21:27:06.567Z,19.48
2023-03-29T21:29:33.936Z,22.58
2023-03-29T21:32:01.853Z,18.37
2023-03-29T21:34:29.265Z,20.55
2023-03-29T21:36:56.775Z,18.05
2023-03-29T21:39:27.928Z,20.75
2023-03-29T21:41:55.473Z,17.58
2023-03-29T21:44:23.454Z,14.35
2023-03-29T21:46:51.278Z,15.32
2023-03-29T21:49:18.800Z,17.62
2023-03-29T21:51:46.500Z,16.17
2023-03-29T21:54:14.308Z,13.73
2023-03-29T21:56:41.823Z,13.38
2023-03-29T21:59:09.221Z,13.77
2023-03-29T22:01:36.985Z,12.73
2023-03-29T22:04:04.670Z,12.00
2023-03-29T22:06:32.160Z,12.95
2023-03-29T22:09:00.774Z,14.50
2023-03-29T22:11:28.675Z,11.50
2023-03-29T22:13:56.211Z,13.23
2023-03-29T22:16:25.859Z,14.75
2023-03-29T22:18:54.253Z,12.65
2023-03-29T22:21:23.637Z,12.88
2023-03-29T22:23:55.522Z,12.65
2023-03-29T22:26:27.557Z,14.85
2023-03-29T22:28:55.718Z,15.38
2023-03-29T22:31:24.374Z,11.88
2023-03-29T22:33:52.203Z,13.70
2023-03-29T22:36:25.310Z,14.30
2023-03-29T22:38:53.507Z,16.33
2023-03-29T22:41:23.733Z,15.55
2023-03-29T22:43:52.720Z,15.57
2023-03-29T22:46:20.968Z,17.02
2023-03-29T22:48:48.717Z,15.68
2023-03-29T22:51:16.702Z,14.73
2023-03-29T22:53:44.679Z,17.15
2023-03-29T22:56:13.321Z,16.12
2023-03-29T22:58:40.692Z,15.88
2023-03-29T23:01:08.706Z,16.27
2023-03-29T23:03:36.828Z,12.82
2023-03-29T23:06:04.820Z,16.17
2023-03-29T23:08:34.334Z,14.02
2023-03-29T23:11:02.591Z,11.63
2023-03-29T23:13:30.364Z,13.00
2023-03-29T23:15:59.931Z,12.52
2023-03-29T23:18:30.937Z,14.90
2023-03-29T23:20:59.046Z,14.73
2023-03-29T23:23:27.308Z,13.38
2023-03-29T23:25:56.111Z,14.20
2023-03-29T23:28:27.139Z,14.63
2023-03-29T23:30:55.620Z,14.63
2023-03-29T23:33:25.597Z,13.70
2023-03-29T23:35:54.072Z,13.82
2023-03-29T23:38:21.477Z,14.87
2023-03-29T23:40:58.754Z,12.85
2023-03-29T23:43:33.974Z,12.82
2023-03-29T23:46:07.015Z,12.50
2023-03-29T23:48:35.179Z,14.20
2023-03-29T23:51:03.826Z,15.55
2023-03-29T23:53:31.567Z,15.32
2023-03-29T23:56:01.329Z,14.43
2023-03-29T23:58:30.987Z,16.23
